createdAt,value
2024-03-11T00:00:05.718Z,0.00
2024-03-11T00:01:06.123Z,0.00
2024-03-11T00:02:06.525Z,0.00
2024-03-11T00:03:06.834Z,0.00
2024-03-11T00:04:07.165Z,0.00
2024-03-11T00:05:07.559Z,0.00
2024-03-11T00:06:07.889Z,0.00
2024-03-11T00:07:08.261Z,0.00
2024-03-11T00:08:08.598Z,0.00
2024-03-11T00:09:08.932Z,0.00
2024-03-11T00:10:09.345Z,0.00
2024-03-11T00:11:09.736Z,0.00
2024-03-11T00:12:10.124Z,0.00
2024-03-11T00:13:10.383Z,0.00
2024-03-11T00:14:10.829Z,0.00
2024-03-11T00:15:11.120Z,0.00
2024-03-11T00:16:11.433Z,0.00
2024-03-11T00:17:11.842Z,0.00
2024-03-11T00:18:12.189Z,0.00
2024-03-11T00:19:12.480Z,0.00
2024-03-11T00:20:12.900Z,0.00
2024-03-11T00:21:13.242Z,0.00
2024-03-11T00:22:13.551Z,0.00
2024-03-11T00:23:13.880Z,0.00
2024-03-11T00:24:14.223Z,0.00
2024-03-11T00:25:14.577Z,0.00
2024-03-11T00:26:14.970Z,0.00
2024-03-11T00:27:15.272Z,0.00
2024-03-11T00:28:15.584Z,0.00
2024-03-11T00:29:15.955Z,0.00
2024-03-11T00:30:16.317Z,0.00
2024-03-11T00:31:16.716Z,0.00
2024-03-11T00:32:17.055Z,0.00
2024-03-11T00:33:17.392Z,0.00
2024-03-11T00:34:17.710Z,0.00
2024-03-11T00:35:18.456Z,0.00
2024-03-11T00:36:18.415Z,0.00
2024-03-11T00:37:18.788Z,0.00
2024-03-11T00:38:19.166Z,0.00
2024-03-11T00:39:19.489Z,0.00
2024-03-11T00:40:19.860Z,0.00
2024-03-11T00:41:20.266Z,0.00
2024-03-11T00:42:20.605Z,0.00
2024-03-11T00:43:20.920Z,0.00
2024-03-11T00:44:21.278Z,0.00
2024-03-11T00:45:21.602Z,0.00
2024-03-11T00:46:21.943Z,0.00
2024-03-11T00:47:22.429Z,0.00
2024-03-11T00:48:22.719Z,0.00
2024-03-11T00:49:23.061Z,0.00
2024-03-11T00:50:23.416Z,0.00
2024-03-11T00:51:23.765Z,0.00
2024-03-11T00:52:24.140Z,0.00
2024-03-11T00:53:24.495Z,0.00
2024-03-11T00:54:24.772Z,0.00
2024-03-11T00:55:25.129Z,0.00
2024-03-11T00:56:25.533Z,0.00
2024-03-11T00:57:25.847Z,0.00
2024-03-11T00:58:26.197Z,0.00
2024-03-11T00:59:26.532Z,0.00
2024-03-11T01:00:26.867Z,0.00
2024-03-11T01:01:27.343Z,0.00
2024-03-11T01:02:27.707Z,0.00
2024-03-11T01:03:27.958Z,0.00
2024-03-11T01:04:28.310Z,0.00
2024-03-11T01:05:28.693Z,0.00
2024-03-11T01:06:29.050Z,0.00
2024-03-11T01:07:38.467Z,0.00
2024-03-11T01:08:29.789Z,0.00
2024-03-11T01:09:30.152Z,0.00
2024-03-11T01:10:30.458Z,0.00
2024-03-11T01:11:30.863Z,0.00
2024-03-11T01:12:31.138Z,0.00
2024-03-11T01:13:31.437Z,0.00
2024-03-11T01:14:31.897Z,0.00
2024-03-11T01:15:32.173Z,0.00
2024-03-11T01:16:32.486Z,0.00
2024-03-11T01:17:32.886Z,0.00
2024-03-11T01:18:33.228Z,0.00
2024-03-11T01:19:33.549Z,0.00
2024-03-11T01:20:34.041Z,0.00
2024-03-11T01:21:34.299Z,0.00
2024-03-11T01:22:34.694Z,0.00
2024-03-11T01:23:35.010Z,0.00
2024-03-11T01:24:35.397Z,0.00
2024-03-11T01:25:35.720Z,0.00
2024-03-11T01:26:36.106Z,0.00
2024-03-11T01:27:36.454Z,0.00
2024-03-11T01:28:36.767Z,0.00
2024-03-11T01:29:39.628Z,0.00
2024-03-11T01:30:37.480Z,0.00
2024-03-11T01:31:37.819Z,0.00
2024-03-11T01:32:38.385Z,0.00
2024-03-11T01:33:38.568Z,0.00
2024-03-11T01:34:38.904Z,0.00
2024-03-11T01:35:39.278Z,0.00
2024-03-11T01:36:39.645Z,0.00
2024-03-11T01:37:39.992Z,0.00
2024-03-11T01:38:40.368Z,0.00
2024-03-11T01:39:40.650Z,0.00
2024-03-11T01:40:41.006Z,0.00
2024-03-11T01:41:41.463Z,0.00
2024-03-11T01:42:41.753Z,0.00
2024-03-11T01:43:42.091Z,0.00
2024-03-11T01:44:42.546Z,0.00
2024-03-11T01:45:42.797Z,0.00
2024-03-11T01:46:43.190Z,0.00
2024-03-11T01:47:43.557Z,0.00
2024-03-11T01:48:43.858Z,0.00
2024-03-11T01:49:44.264Z,0.00
2024-03-11T01:50:44.932Z,0.00
2024-03-11T01:51:44.937Z,0.00
2024-03-11T01:52:45.227Z,0.00
2024-03-11T01:53:45.634Z,0.00
2024-03-11T01:54:45.917Z,0.00
2024-03-11T01:55:46.297Z,0.00
2024-03-11T01:56:46.662Z,0.00
2024-03-11T01:57:46.994Z,0.00
2024-03-11T01:58:47.337Z,0.00
2024-03-11T01:59:47.743Z,0.00
2024-03-11T02:00:48.097Z,0.00
2024-03-11T02:01:48.471Z,0.00
2024-03-11T02:02:48.839Z,0.00
2024-03-11T02:03:49.146Z,0.00
2024-03-11T02:04:49.517Z,0.00
2024-03-11T02:05:49.893Z,0.00
2024-03-11T02:06:50.195Z,0.00
2024-03-11T02:07:50.532Z,0.00
2024-03-11T02:08:50.916Z,0.00
2024-03-11T02:09:51.230Z,0.00
2024-03-11T02:10:51.651Z,0.00
2024-03-11T02:11:52.082Z,0.00
2024-03-11T02:12:52.323Z,0.00
2024-03-11T02:13:52.677Z,0.00
2024-03-11T02:14:53.123Z,0.00
2024-03-11T02:15:53.375Z,0.00
2024-03-11T02:16:53.749Z,0.00
2024-03-11T02:17:54.202Z,0.00
2024-03-11T02:18:54.461Z,0.00
2024-03-11T02:19:54.811Z,0.00
2024-03-11T02:20:55.197Z,0.00
2024-03-11T02:21:55.521Z,0.00
2024-03-11T02:22:55.863Z,0.00
2024-03-11T02:23:56.185Z,0.00
2024-03-11T02:24:56.540Z,0.00
2024-03-11T02:25:56.878Z,0.00
2024-03-11T02:26:57.245Z,0.00
2024-03-11T02:27:57.694Z,0.00
2024-03-11T02:28:57.964Z,0.00
2024-03-11T02:29:58.319Z,0.00
2024-03-11T02:30:58.682Z,0.00
2024-03-11T02:31:59.064Z,0.00
2024-03-11T02:32:59.587Z,0.00
2024-03-11T02:33:59.727Z,0.00
2024-03-11T02:35:00.071Z,0.00
2024-03-11T02:36:00.520Z,0.00
2024-03-11T02:37:00.830Z,0.00
2024-03-11T02:38:01.239Z,0.00
2024-03-11T02:39:01.544Z,0.00
2024-03-11T02:40:01.923Z,0.00
2024-03-11T02:41:02.303Z,0.00
2024-03-11T02:42:02.591Z,0.00
2024-03-11T02:43:02.964Z,0.00
2024-03-11T02:44:03.369Z,0.00
2024-03-11T02:45:03.683Z,0.00
2024-03-11T02:46:04.008Z,0.00
2024-03-11T02:47:04.409Z,0.00
2024-03-11T02:48:04.862Z,0.00
2024-03-11T02:49:05.037Z,0.00
2024-03-11T02:50:05.429Z,0.00
2024-03-11T02:51:05.730Z,0.00
2024-03-11T02:52:06.146Z,0.00
2024-03-11T02:53:06.452Z,0.00
2024-03-11T02:54:06.793Z,0.00
2024-03-11T02:55:07.564Z,0.00
2024-03-11T02:56:07.541Z,0.00
2024-03-11T02:57:07.836Z,0.00
2024-03-11T02:58:08.253Z,0.00
2024-03-11T02:59:08.545Z,0.00
2024-03-11T03:00:08.871Z,0.00
2024-03-11T03:01:09.233Z,0.00
2024-03-11T03:02:09.644Z,0.00
2024-03-11T03:03:10.008Z,0.00
2024-03-11T03:04:10.303Z,0.00
2024-03-11T03:05:10.689Z,0.00
2024-03-11T03:06:10.990Z,0.00
2024-03-11T03:07:11.380Z,0.00
2024-03-11T03:08:11.690Z,0.00
2024-03-11T03:09:12.034Z,0.00
2024-03-11T03:10:12.407Z,0.00
2024-03-11T03:11:12.831Z,0.00
2024-03-11T03:12:13.256Z,0.00
2024-03-11T03:13:13.475Z,0.00
2024-03-11T03:14:13.819Z,0.00
2024-03-11T03:15:14.175Z,0.00
2024-03-11T03:16:14.534Z,0.00
2024-03-11T03:17:15.010Z,0.00
2024-03-11T03:18:15.240Z,0.00
2024-03-11T03:19:15.569Z,0.00
2024-03-11T03:20:16.334Z,0.00
2024-03-11T03:21:16.300Z,0.00
2024-03-11T03:22:16.618Z,0.00
2024-03-11T03:23:17.008Z,0.00
2024-03-11T03:24:17.347Z,0.00
2024-03-11T03:25:17.712Z,0.00
2024-03-11T03:26:18.095Z,0.00
2024-03-11T03:27:18.389Z,0.00
2024-03-11T03:28:18.792Z,0.00
2024-03-11T03:29:19.125Z,0.00
2024-03-11T03:30:19.574Z,0.00
2024-03-11T03:31:19.839Z,0.00
2024-03-11T03:32:20.205Z,0.00
2024-03-11T03:33:20.537Z,0.00
2024-03-11T03:34:20.897Z,0.00
2024-03-11T03:35:21.254Z,0.00
2024-03-11T03:36:21.612Z,0.00
2024-03-11T03:37:21.974Z,0.00
2024-03-11T03:38:22.372Z,0.00
2024-03-11T03:39:22.690Z,0.00
2024-03-11T03:40:23.006Z,0.00
2024-03-11T03:41:23.415Z,0.00
2024-03-11T03:42:23.738Z,0.00
2024-03-11T03:43:24.072Z,0.00
2024-03-11T03:44:24.534Z,0.00
2024-03-11T03:45:24.823Z,0.00
2024-03-11T03:46:25.153Z,0.00
2024-03-11T03:47:25.587Z,0.00
2024-03-11T03:48:25.897Z,0.00
2024-03-11T03:49:26.217Z,0.00
2024-03-11T03:50:26.581Z,0.00
2024-03-11T03:51:26.930Z,0.00
2024-03-11T03:52:27.254Z,0.00
2024-03-11T03:53:27.684Z,0.00
2024-03-11T03:54:27.955Z,0.00
2024-03-11T03:55:28.317Z,0.00
2024-03-11T03:56:28.714Z,0.00
2024-03-11T03:57:29.035Z,0.00
2024-03-11T03:58:31.123Z,0.00
2024-03-11T03:59:29.819Z,0.00
2024-03-11T04:00:30.084Z,0.00
2024-03-11T04:01:30.489Z,0.00
2024-03-11T04:02:30.808Z,0.00
2024-03-11T04:03:31.140Z,0.00
2024-03-11T04:04:31.514Z,0.00
2024-03-11T04:05:31.909Z,0.00
2024-03-11T04:06:32.231Z,0.00
2024-03-11T04:07:32.588Z,0.00
2024-03-11T04:08:32.949Z,0.00
2024-03-11T04:09:33.270Z,0.00
2024-03-11T04:10:33.627Z,0.00
2024-03-11T04:11:34.108Z,0.00
2024-03-11T04:12:34.342Z,0.00
2024-03-11T04:13:36.294Z,0.00
2024-03-11T04:14:35.114Z,0.00
2024-03-11T04:15:35.430Z,0.00
2024-03-11T04:16:35.798Z,0.00
2024-03-11T04:17:36.155Z,0.00
2024-03-11T04:18:36.504Z,0.00
2024-03-11T04:19:36.809Z,0.00
2024-03-11T04:20:37.224Z,0.00
2024-03-11T04:21:37.538Z,0.00
2024-03-11T04:22:37.876Z,0.00
2024-03-11T04:23:38.461Z,0.00
2024-03-11T04:24:38.575Z,0.00
2024-03-11T04:25:38.931Z,0.00
2024-03-11T04:26:39.369Z,0.00
2024-03-11T04:27:39.658Z,0.00
2024-03-11T04:28:40.025Z,0.00
2024-03-11T04:29:40.422Z,0.00
2024-03-11T04:30:40.720Z,0.00
2024-03-11T04:31:41.113Z,0.00
2024-03-11T04:32:41.461Z,0.00
2024-03-11T04:33:41.899Z,0.00
2024-03-11T04:34:42.111Z,0.00
2024-03-11T04:35:42.509Z,0.00
2024-03-11T04:36:42.855Z,0.00
2024-03-11T04:37:43.234Z,0.00
2024-03-11T04:38:43.721Z,0.00
2024-03-11T04:39:43.953Z,0.00
2024-03-11T04:40:44.306Z,0.00
2024-03-11T04:41:47.015Z,0.00
2024-03-11T04:42:45.015Z,0.00
2024-03-11T04:43:45.371Z,0.00
2024-03-11T04:44:45.818Z,0.00
2024-03-11T04:45:46.089Z,0.00
2024-03-11T04:46:46.445Z,0.00
2024-03-11T04:47:46.874Z,0.00
2024-03-11T04:48:47.335Z,0.00
2024-03-11T04:49:47.496Z,0.00
2024-03-11T04:50:47.854Z,0.00
2024-03-11T04:51:48.216Z,0.00
2024-03-11T04:52:48.535Z,0.00
2024-03-11T04:53:48.917Z,0.00
2024-03-11T04:54:49.247Z,0.00
2024-03-11T04:55:49.664Z,0.00
2024-03-11T04:56:49.999Z,0.00
2024-03-11T04:57:50.346Z,0.00
2024-03-11T04:58:50.667Z,0.00
2024-03-11T04:59:51.090Z,0.00
2024-03-11T05:00:51.401Z,0.00
2024-03-11T05:01:51.786Z,0.00
2024-03-11T05:02:52.108Z,0.00
2024-03-11T05:03:52.426Z,0.00
2024-03-11T05:04:52.790Z,0.00
2024-03-11T05:05:53.182Z,0.00
2024-03-11T05:06:53.501Z,0.00
2024-03-11T05:07:53.853Z,0.00
2024-03-11T05:08:54.250Z,0.00
2024-03-11T05:09:54.539Z,0.00
2024-03-11T05:10:54.921Z,0.00
2024-03-11T05:11:55.454Z,0.00
2024-03-11T05:12:55.633Z,0.00
2024-03-11T05:13:56.007Z,0.00
2024-03-11T05:14:56.358Z,0.00
2024-03-11T05:15:56.721Z,0.00
2024-03-11T05:16:57.138Z,0.00
2024-03-11T05:17:57.636Z,0.00
2024-03-11T05:18:57.840Z,0.00
2024-03-11T05:19:58.190Z,0.00
2024-03-11T05:20:58.593Z,0.00
2024-03-11T05:21:58.909Z,0.00
2024-03-11T05:22:59.250Z,0.00
2024-03-11T05:23:59.618Z,0.00
2024-03-11T05:24:59.908Z,1.00
2024-03-11T05:26:00.030Z,1.00
2024-03-11T05:27:00.344Z,1.00
2024-03-11T05:28:00.628Z,1.00
2024-03-11T05:29:00.882Z,1.00
2024-03-11T05:30:01.150Z,2.00
2024-03-11T05:31:01.471Z,2.00
2024-03-11T05:32:01.647Z,2.00
2024-03-11T05:33:02.071Z,2.00
2024-03-11T05:34:02.071Z,3.00
2024-03-11T05:35:02.413Z,3.00
2024-03-11T05:36:02.761Z,5.00
2024-03-11T05:37:02.978Z,7.00
2024-03-11T05:38:03.241Z,8.00
2024-03-11T05:39:03.538Z,10.00
2024-03-11T05:40:03.736Z,11.00
2024-03-11T05:41:04.042Z,11.00
2024-03-11T05:42:04.171Z,17.00
2024-03-11T05:43:04.448Z,20.00
2024-03-11T05:44:04.767Z,20.00
2024-03-11T05:45:05.031Z,22.00
2024-03-11T05:46:05.313Z,23.00
2024-03-11T05:47:05.530Z,24.00
2024-03-11T05:48:06.103Z,23.00
2024-03-11T05:49:05.925Z,22.00
2024-03-11T05:50:06.164Z,20.00
2024-03-11T05:51:06.430Z,22.00
2024-03-11T05:52:06.553Z,24.00
2024-03-11T05:53:06.899Z,24.00
2024-03-11T05:54:07.124Z,27.00
2024-03-11T05:55:07.507Z,34.00
2024-03-11T05:56:07.696Z,42.00
2024-03-11T05:57:07.979Z,45.00
2024-03-11T05:58:08.257Z,53.00
2024-03-11T05:59:08.610Z,63.00
2024-03-11T06:00:08.856Z,67.00
2024-03-11T06:01:09.050Z,76.00
2024-03-11T06:02:09.266Z,69.00
2024-03-11T06:03:09.481Z,67.00
2024-03-11T06:04:09.812Z,66.00
2024-03-11T06:05:10.117Z,58.00
2024-03-11T06:06:10.237Z,58.00
2024-03-11T06:07:10.549Z,59.00
2024-03-11T06:08:10.849Z,58.00
2024-03-11T06:09:11.851Z,64.00
2024-03-11T06:10:11.536Z,67.00
2024-03-11T06:11:11.804Z,78.00
2024-03-11T06:12:12.096Z,88.00
2024-03-11T06:13:12.289Z,106.00
2024-03-11T06:14:12.621Z,115.00
2024-03-11T06:15:12.769Z,132.00
2024-03-11T06:16:12.989Z,150.00
2024-03-11T06:17:13.163Z,175.00
2024-03-11T06:18:13.625Z,211.00
2024-03-11T06:19:13.601Z,250.00
2024-03-11T06:20:13.845Z,277.00
2024-03-11T06:21:13.961Z,303.00
2024-03-11T06:22:14.208Z,309.00
2024-03-11T06:23:14.393Z,303.00
2024-03-11T06:24:14.522Z,305.00
2024-03-11T06:25:14.685Z,291.00
2024-03-11T06:26:14.975Z,290.00
2024-03-11T06:27:15.167Z,289.00
2024-03-11T06:28:15.414Z,261.00
2024-03-11T06:29:15.602Z,245.00
2024-03-11T06:30:15.785Z,237.00
2024-03-11T06:31:15.952Z,228.00
2024-03-11T06:32:16.270Z,222.00
2024-03-11T06:33:16.439Z,222.00
2024-03-11T06:34:16.485Z,237.00
2024-03-11T06:35:16.748Z,268.00
2024-03-11T06:36:16.845Z,288.00
2024-03-11T06:37:17.041Z,287.00
2024-03-11T06:38:17.274Z,290.00
2024-03-11T06:39:17.532Z,310.00
2024-03-11T06:40:17.658Z,344.00
2024-03-11T06:41:17.847Z,414.00
2024-03-11T06:42:18.032Z,509.00
2024-03-11T06:43:18.252Z,611.00
2024-03-11T06:44:21.378Z,737.00
2024-03-11T06:45:18.701Z,860.00
2024-03-11T06:46:18.814Z,923.00
2024-03-11T06:47:19.112Z,904.00
2024-03-11T06:48:19.897Z,813.00
2024-03-11T06:49:19.566Z,744.00
2024-03-11T06:50:19.739Z,705.00
2024-03-11T06:51:20.018Z,742.00
2024-03-11T06:52:20.224Z,860.00
2024-03-11T06:53:20.367Z,930.00
2024-03-11T06:54:20.552Z,859.00
2024-03-11T06:55:20.735Z,869.00
2024-03-11T06:56:20.929Z,940.00
2024-03-11T06:57:21.148Z,962.00
2024-03-11T06:58:21.301Z,954.00
2024-03-11T06:59:23.987Z,977.00
2024-03-11T07:00:21.765Z,999.00
2024-03-11T07:01:22.086Z,1070.00
2024-03-11T07:02:22.354Z,1113.00
2024-03-11T07:03:22.403Z,1099.00
2024-03-11T07:04:22.629Z,1119.00
2024-03-11T07:05:22.761Z,1119.00
2024-03-11T07:06:22.994Z,1162.00
2024-03-11T07:07:23.148Z,1186.00
2024-03-11T07:08:23.309Z,1147.00
2024-03-11T07:09:23.497Z,1131.00
2024-03-11T07:10:23.829Z,1106.00
2024-03-11T07:11:24.182Z,1096.00
2024-03-11T07:12:24.512Z,1157.00
2024-03-11T07:13:24.674Z,1250.00
2024-03-11T07:14:24.833Z,1311.00
2024-03-11T07:15:25.309Z,1364.00
2024-03-11T07:16:25.321Z,1376.00
2024-03-11T07:17:25.631Z,1345.00
2024-03-11T07:18:25.898Z,1333.00
2024-03-11T07:19:26.035Z,1234.00
2024-03-11T07:20:26.282Z,1217.00
2024-03-11T07:21:26.463Z,1281.00
2024-03-11T07:22:26.667Z,1320.00
2024-03-11T07:23:27.224Z,1367.00
2024-03-11T07:24:27.036Z,1444.00
2024-03-11T07:25:27.234Z,1597.00
2024-03-11T07:26:27.352Z,1847.00
2024-03-11T07:27:27.570Z,1935.00
2024-03-11T07:28:27.712Z,2075.00
2024-03-11T07:29:27.892Z,2174.00
2024-03-11T07:30:28.069Z,2361.00
2024-03-11T07:31:28.291Z,2548.00
2024-03-11T07:32:28.468Z,2704.00
2024-03-11T07:33:29.082Z,2923.00
2024-03-11T07:34:28.787Z,3055.00
2024-03-11T07:35:28.948Z,3045.00
2024-03-11T07:36:29.134Z,2925.00
2024-03-11T07:37:29.342Z,2895.00
2024-03-11T07:38:29.536Z,2916.00
2024-03-11T07:39:29.677Z,2868.00
2024-03-11T07:40:29.851Z,2830.00
2024-03-11T07:41:30.134Z,2741.00
2024-03-11T07:42:30.356Z,2578.00
2024-03-11T07:43:30.735Z,2421.00
2024-03-11T07:44:30.715Z,2322.00
2024-03-11T07:45:30.866Z,2307.00
2024-03-11T07:46:31.033Z,2331.00
2024-03-11T07:47:31.263Z,2409.00
2024-03-11T07:48:31.407Z,2496.00
2024-03-11T07:49:31.636Z,2521.00
2024-03-11T07:50:31.795Z,2424.00
2024-03-11T07:51:32.003Z,2384.00
2024-03-11T07:52:32.135Z,2426.00
2024-03-11T07:53:32.420Z,2360.00
2024-03-11T07:54:32.619Z,2361.00
2024-03-11T07:55:32.775Z,2324.00
2024-03-11T07:56:32.960Z,2243.00
2024-03-11T07:57:33.291Z,2354.00
2024-03-11T07:58:33.555Z,2469.00
2024-03-11T07:59:33.720Z,2509.00
2024-03-11T08:00:33.899Z,2271.00
2024-03-11T08:01:34.074Z,2104.00
2024-03-11T08:02:34.265Z,2102.00
2024-03-11T08:03:34.475Z,2104.00
2024-03-11T08:04:34.632Z,2123.00
2024-03-11T08:05:34.801Z,2145.00
2024-03-11T08:06:35.012Z,1960.00
2024-03-11T08:07:35.340Z,1826.00
2024-03-11T08:08:35.480Z,1619.00
2024-03-11T08:09:35.678Z,1530.00
2024-03-11T08:10:35.878Z,1542.00
2024-03-11T08:11:36.044Z,1510.00
2024-03-11T08:12:36.209Z,1458.00
2024-03-11T08:13:36.499Z,1396.00
2024-03-11T08:14:36.692Z,1373.00
2024-03-11T08:15:36.858Z,1384.00
2024-03-11T08:16:37.080Z,1442.00
2024-03-11T08:17:37.291Z,1537.00
2024-03-11T08:18:37.387Z,1637.00
2024-03-11T08:19:37.554Z,1741.00
2024-03-11T08:20:37.743Z,1881.00
2024-03-11T08:21:37.920Z,2042.00
2024-03-11T08:22:38.120Z,2139.00
2024-03-11T08:23:38.416Z,2117.00
2024-03-11T08:24:38.582Z,2064.00
2024-03-11T08:25:38.770Z,2045.00
2024-03-11T08:26:38.943Z,2052.00
2024-03-11T08:27:39.151Z,1985.00
2024-03-11T08:28:39.295Z,1843.00
2024-03-11T08:29:39.582Z,1664.00
2024-03-11T08:30:39.654Z,1550.00
2024-03-11T08:31:39.836Z,1434.00
2024-03-11T08:32:40.117Z,1405.00
2024-03-11T08:33:40.200Z,1415.00
2024-03-11T08:34:40.368Z,1392.00
2024-03-11T08:35:40.605Z,1347.00
2024-03-11T08:36:40.702Z,1401.00
2024-03-11T08:37:40.905Z,1379.00
2024-03-11T08:38:41.181Z,1223.00
2024-03-11T08:39:41.512Z,1084.00
2024-03-11T08:40:41.850Z,1030.00
2024-03-11T08:41:42.072Z,969.00
2024-03-11T08:42:42.289Z,936.00
2024-03-11T08:43:42.414Z,965.00
2024-03-11T08:44:42.741Z,1004.00
2024-03-11T08:45:43.254Z,1026.00
2024-03-11T08:46:43.333Z,1040.00
2024-03-11T08:47:43.517Z,1090.00
2024-03-11T08:48:43.765Z,1121.00
2024-03-11T08:49:43.948Z,1140.00
2024-03-11T08:50:44.189Z,1198.00
2024-03-11T08:51:44.325Z,1270.00
2024-03-11T08:52:44.561Z,1410.00
2024-03-11T08:53:44.659Z,1516.00
2024-03-11T08:54:44.866Z,1555.00
2024-03-11T08:55:45.009Z,1625.00
2024-03-11T08:56:45.185Z,1680.00
2024-03-11T08:57:45.381Z,1782.00
2024-03-11T08:58:45.573Z,1919.00
2024-03-11T08:59:45.831Z,1952.00
2024-03-11T09:00:45.960Z,1909.00
2024-03-11T09:01:46.130Z,1848.00
2024-03-11T09:02:46.867Z,1795.00
2024-03-11T09:03:46.529Z,1876.00
2024-03-11T09:04:46.664Z,1939.00
2024-03-11T09:05:46.848Z,1902.00
2024-03-11T09:06:47.065Z,1917.00
2024-03-11T09:07:47.393Z,2034.00
2024-03-11T09:08:48.288Z,2051.00
2024-03-11T09:09:47.847Z,1925.00
2024-03-11T09:10:47.861Z,1783.00
2024-03-11T09:11:48.101Z,1679.00
2024-03-11T09:12:48.734Z,1620.00
2024-03-11T09:13:48.498Z,1514.00
2024-03-11T09:14:48.707Z,1550.00
2024-03-11T09:15:48.879Z,1679.00
2024-03-11T09:16:49.027Z,1856.00
2024-03-11T09:17:49.285Z,1965.00
2024-03-11T09:18:49.387Z,1979.00
2024-03-11T09:19:49.542Z,1991.00
2024-03-11T09:20:49.721Z,1911.00
2024-03-11T09:21:49.966Z,1889.00
2024-03-11T09:22:50.098Z,1971.00
2024-03-11T09:23:50.237Z,2008.00
2024-03-11T09:24:50.426Z,2235.00
2024-03-11T09:25:50.590Z,2502.00
2024-03-11T09:26:50.792Z,2899.00
2024-03-11T09:27:51.004Z,3235.00
2024-03-11T09:28:51.122Z,3171.00
2024-03-11T09:29:51.287Z,2933.00
2024-03-11T09:30:51.476Z,2953.00
2024-03-11T09:31:51.755Z,3113.00
2024-03-11T09:32:52.064Z,3079.00
2024-03-11T09:33:52.203Z,2915.00
2024-03-11T09:34:52.312Z,2725.00
2024-03-11T09:35:52.505Z,2737.00
2024-03-11T09:36:52.723Z,2736.00
2024-03-11T09:37:52.981Z,2555.00
2024-03-11T09:38:53.005Z,2311.00
2024-03-11T09:39:53.469Z,2098.00
2024-03-11T09:40:53.643Z,2034.00
2024-03-11T09:41:53.923Z,2231.00
2024-03-11T09:42:54.142Z,2521.00
2024-03-11T09:43:54.301Z,2760.00
2024-03-11T09:44:54.475Z,3007.00
2024-03-11T09:45:54.761Z,3030.00
2024-03-11T09:46:54.833Z,3082.00
2024-03-11T09:47:55.046Z,3162.00
2024-03-11T09:48:55.293Z,3432.00
2024-03-11T09:49:55.376Z,3478.00
2024-03-11T09:50:55.551Z,3170.00
2024-03-11T09:51:55.752Z,2640.00
2024-03-11T09:52:56.028Z,2279.00
2024-03-11T09:53:56.238Z,2074.00
2024-03-11T09:54:56.444Z,1977.00
2024-03-11T09:55:56.567Z,1978.00
2024-03-11T09:56:56.745Z,1901.00
2024-03-11T09:57:56.973Z,1845.00
2024-03-11T09:58:57.106Z,1779.00
2024-03-11T09:59:57.287Z,1804.00
2024-03-11T10:00:57.820Z,1875.00
2024-03-11T10:01:57.690Z,1906.00
2024-03-11T10:02:57.984Z,1790.00
2024-03-11T10:03:58.242Z,1764.00
2024-03-11T10:04:58.286Z,1794.00
2024-03-11T10:05:59.714Z,1873.00
2024-03-11T10:06:58.852Z,1892.00
2024-03-11T10:07:58.862Z,1945.00
2024-03-11T10:08:59.020Z,1942.00
2024-03-11T10:09:59.274Z,1839.00
2024-03-11T10:10:59.479Z,1893.00
2024-03-11T10:11:59.564Z,1854.00
2024-03-11T10:12:59.923Z,1730.00
2024-03-11T10:13:59.914Z,1597.00
2024-03-11T10:15:00.183Z,1598.00
2024-03-11T10:16:00.319Z,1714.00
2024-03-11T10:17:00.486Z,1794.00
2024-03-11T10:18:00.701Z,1744.00
2024-03-11T10:19:00.876Z,1700.00
2024-03-11T10:20:01.119Z,1671.00
2024-03-11T10:21:01.328Z,1708.00
2024-03-11T10:22:01.529Z,1682.00
2024-03-11T10:23:01.700Z,1691.00
2024-03-11T10:24:01.843Z,2020.00
2024-03-11T10:25:02.104Z,2278.00
2024-03-11T10:26:02.216Z,2185.00
2024-03-11T10:27:02.338Z,2118.00
2024-03-11T10:28:02.580Z,1824.00
2024-03-11T10:29:02.733Z,1624.00
2024-03-11T10:30:02.906Z,1466.00
2024-03-11T10:31:03.243Z,1419.00
2024-03-11T10:32:03.507Z,1465.00
2024-03-11T10:33:03.981Z,1508.00
2024-03-11T10:34:04.040Z,1578.00
2024-03-11T10:35:04.075Z,1629.00
2024-03-11T10:36:04.282Z,1770.00
2024-03-11T10:37:04.581Z,1877.00
2024-03-11T10:38:04.649Z,1926.00
2024-03-11T10:39:04.919Z,2013.00
2024-03-11T10:40:05.143Z,2192.00
2024-03-11T10:41:05.158Z,2199.00
2024-03-11T10:42:05.356Z,2113.00
2024-03-11T10:43:05.631Z,2026.00
2024-03-11T10:44:05.715Z,1887.00
2024-03-11T10:45:05.927Z,1832.00
2024-03-11T10:46:06.132Z,1798.00
2024-03-11T10:47:06.270Z,1681.00
2024-03-11T10:48:06.527Z,1511.00
2024-03-11T10:49:06.643Z,1396.00
2024-03-11T10:50:06.755Z,1258.00
2024-03-11T10:51:06.917Z,1082.00
2024-03-11T10:52:07.248Z,969.00
2024-03-11T10:53:07.302Z,926.00
2024-03-11T10:54:07.470Z,907.00
2024-03-11T10:55:13.887Z,920.00
2024-03-11T10:57:22.347Z,949.00
2024-03-11T10:58:23.490Z,887.00
2024-03-11T10:59:23.650Z,823.00
2024-03-11T11:00:23.850Z,789.00
2024-03-11T11:01:24.215Z,821.00
2024-03-11T11:02:27.339Z,886.00
2024-03-11T11:03:24.798Z,989.00
2024-03-11T11:04:24.857Z,1169.00
2024-03-11T11:05:25.168Z,1380.00
2024-03-11T11:06:25.402Z,1483.00
2024-03-11T11:07:25.548Z,1632.00
2024-03-11T11:08:25.809Z,1859.00
2024-03-11T11:09:26.188Z,1929.00
2024-03-11T11:10:26.312Z,1977.00
2024-03-11T11:11:26.498Z,2084.00
2024-03-11T11:12:26.701Z,2068.00
2024-03-11T11:13:26.818Z,2007.00
2024-03-11T11:14:30.337Z,2023.00
2024-03-11T11:15:27.456Z,2089.00
2024-03-11T11:16:27.577Z,2421.00
2024-03-11T11:17:27.654Z,2542.00
2024-03-11T11:18:27.969Z,2541.00
2024-03-11T11:19:28.217Z,2367.00
2024-03-11T11:20:28.395Z,2023.00
2024-03-11T11:21:28.762Z,1749.00
2024-03-11T11:22:28.898Z,1666.00
2024-03-11T11:23:29.804Z,1600.00
2024-03-11T11:24:30.254Z,1420.00
2024-03-11T11:25:29.383Z,1317.00
2024-03-11T11:26:29.693Z,1331.00
2024-03-11T11:27:29.919Z,1315.00
2024-03-11T11:28:30.135Z,1469.00
2024-03-11T11:29:30.572Z,1579.00
2024-03-11T11:30:30.699Z,1760.00
2024-03-11T11:31:30.939Z,2056.00
2024-03-11T11:32:31.176Z,2256.00
2024-03-11T11:33:31.443Z,2285.00
2024-03-11T11:34:31.573Z,2175.00
2024-03-11T11:35:31.761Z,2343.00
2024-03-11T11:36:32.201Z,2455.00
2024-03-11T11:37:32.121Z,2660.00
2024-03-11T11:38:32.297Z,2930.00
2024-03-11T11:39:32.498Z,2926.00
2024-03-11T11:40:33.160Z,3018.00
2024-03-11T11:41:32.841Z,2920.00
2024-03-11T11:42:33.046Z,2691.00
2024-03-11T11:43:33.217Z,2921.00
2024-03-11T11:44:33.373Z,3327.00
2024-03-11T11:45:33.602Z,3759.00
2024-03-11T11:46:33.718Z,3927.00
2024-03-11T11:47:33.970Z,3899.00
2024-03-11T11:48:34.134Z,3850.00
2024-03-11T11:49:34.364Z,3736.00
2024-03-11T11:50:34.539Z,4086.00
2024-03-11T11:51:34.975Z,4096.00
2024-03-11T11:52:35.590Z,3756.00
2024-03-11T11:53:38.766Z,3495.00
2024-03-11T11:54:37.336Z,3252.00
2024-03-11T11:55:35.494Z,3239.00
2024-03-11T11:56:35.637Z,3586.00
2024-03-11T11:57:38.320Z,3416.00
2024-03-11T11:58:36.007Z,3286.00
2024-03-11T11:59:36.169Z,3414.00
2024-03-11T12:00:40.482Z,3402.00
2024-03-11T12:01:36.649Z,3206.00
2024-03-11T12:02:36.803Z,3029.00
2024-03-11T12:03:36.966Z,3493.00
2024-03-11T12:04:37.073Z,4535.00
2024-03-11T12:05:37.260Z,5038.00
2024-03-11T12:06:37.452Z,5073.00
2024-03-11T12:07:37.667Z,4939.00
2024-03-11T12:08:37.849Z,4460.00
2024-03-11T12:09:38.094Z,4274.00
2024-03-11T12:10:38.232Z,4697.00
2024-03-11T12:11:38.465Z,4275.00
2024-03-11T12:12:38.672Z,4289.00
2024-03-11T12:13:38.800Z,4604.00
2024-03-11T12:14:39.018Z,4771.00
2024-03-11T12:15:39.855Z,4717.00
2024-03-11T12:16:39.363Z,5048.00
2024-03-11T12:17:39.638Z,4912.00
2024-03-11T12:18:39.779Z,4988.00
2024-03-11T12:19:39.930Z,4646.00
2024-03-11T12:20:40.137Z,4073.00
2024-03-11T12:21:40.318Z,3921.00
2024-03-11T12:22:40.503Z,3870.00
2024-03-11T12:23:40.678Z,4011.00
2024-03-11T12:24:40.879Z,4102.00
2024-03-11T12:25:41.032Z,4168.00
2024-03-11T12:26:41.195Z,4415.00
2024-03-11T12:27:41.460Z,4221.00
2024-03-11T12:28:41.625Z,3578.00
2024-03-11T12:29:41.778Z,3301.00
2024-03-11T12:30:42.004Z,3648.00
2024-03-11T12:31:42.182Z,3493.00
2024-03-11T12:32:42.426Z,3363.00
2024-03-11T12:33:42.533Z,3330.00
2024-03-11T12:34:42.739Z,3546.00
2024-03-11T12:35:42.907Z,4079.00
2024-03-11T12:36:43.160Z,4599.00
2024-03-11T12:37:43.303Z,5259.00
2024-03-11T12:38:43.473Z,5228.00
2024-03-11T12:39:43.822Z,5375.00
2024-03-11T12:40:43.807Z,6431.00
2024-03-11T12:41:44.008Z,7346.00
2024-03-11T12:42:44.330Z,7924.00
2024-03-11T12:43:44.436Z,8047.00
2024-03-11T12:44:44.562Z,7944.00